Shelby County Airport Alabaster US
ICAO: KEET
IATA: EET
Category: Medium
Scheduled Services: No

Elevation: 586 ft
TransAlt. 18000 ft.

Airport Communications:
BIRMINGHAM APP/DEP:123.8
ASOS:134.325
CTAF/UNICOM:122.7

KEET Zoom In..

If Map Doesn't Load, Click Here

Runways:

(A) RW 16 length 5000 ft width 75 ft
---- / hdg 160

(B) RW 34 length 5000 ft width 75 ft
---- / hdg 340

Location; KEET
Day. 26 / Time. 10.53 Zulu
* Altimeter: 30.07
* Temperature: 23° c. 73.4°f.
* Wind from: 190° Speed 06 kn.
Dewpoint: 23° c.
Visibility: 7 Statute Miles.
Clouds: Overcast 400 ft.

KEET 261053Z AUTO 19006KT 7SM OVC004 23/23 A3007 RMK AO2 SLP174 T02330228


Wind From 190°
Speed 06 kn.

 
 
jpsmedia.com for Web Design worldairports.se 2018   terms of use